PWSweather.com
Personal Weather Stations
Station Observations
EDDERTON
Rossshire, EddertonGB IV191LA

RossshireEddertonGB IV191LA

Lat: 57.838, Lon: -4.176

Elevation: 60

Station Type: Davis Vantage PRO2 Wireless With Solar Sensor

http://www.ardmore-lodge.com

Latest ConditionsUpdated 11:30:01 PM GMT Sunday, Jul 5, 2015
Currently Today's Max Today's Min Today's Average
Temperature 53.9°F12.2°C 61.4°F16.3°C 48.4°F9.1°C 55.0°F12.8°C
Dew Point 53.1°F11.7°C 58.7°F14.8°C 47.8°F8.8°C 53.8°F12.1°C
Winds Calm Calm 3.5 mph ESE5.6 kmh ESE - 1.3 mph 2.1 kmh
Wind Gusts 1.2 mph1.9 kmh 6.9 mph11.1 kmh - -
Humidity 97% 98% 88% 96%
Pressure 29.88 in1011.9 mb 29.99 in1015.6 mb 29.87 in1011.5 mb -
Hour Temp Dew Point Humidity Winds Wind Gusts Pressure Precip Precip Rate Daily Precip Total
11:30 PM 53.9°F12.2°C 53.1°F11.7°C 97% Calm Calm 1.2 mph1.9 kmh 29.88 in1011.9 mb - 0.00 in0.0 mm 0.09 in2.3 mm
11:15 PM 53.8°F12.1°C 53.0°F11.7°C 97% Calm Calm -- 29.88 in1011.9 mb - 0.00 in0.0 mm 0.09 in2.3 mm
11:00 PM 53.8°F12.1°C 53.0°F11.7°C 97% Calm Calm -- 29.87 in1011.5 mb - 0.00 in0.0 mm 0.09 in2.3 mm
10:45 PM 54.0°F12.2°C 53.2°F11.8°C 97% Calm Calm -- 29.87 in1011.5 mb - 0.00 in0.0 mm 0.07 in1.8 mm
10:30 PM 54.2°F12.3°C 53.4°F11.9°C 97% 1.2 mph ESE1.9 kmh ESE 2.3 mph3.7 kmh 29.88 in1011.9 mb - 0.00 in0.0 mm 0.07 in1.8 mm
10:15 PM 54.4°F12.4°C 53.6°F12.0°C 97% 2.3 mph ESE3.7 kmh ESE 3.5 mph5.6 kmh 29.88 in1011.9 mb - 0.02 in0.5 mm 0.07 in1.8 mm
10:00 PM 54.8°F12.7°C 53.7°F12.1°C 96% 1.2 mph ESE1.9 kmh ESE 3.5 mph5.6 kmh 29.88 in1011.9 mb - 0.05 in1.3 mm 0.06 in1.5 mm
09:45 PM 55.2°F12.9°C 54.4°F12.4°C 97% Calm Calm 1.2 mph1.9 kmh 29.88 in1011.9 mb - 0.02 in0.5 mm 0.02 in0.5 mm
09:30 PM 55.3°F12.9°C 54.5°F12.5°C 97% 2.3 mph ESE3.7 kmh ESE 3.5 mph5.6 kmh 29.87 in1011.5 mb - 0.00 in0.0 mm 0.00 in0.0 mm
09:15 PM 55.1°F12.8°C 54.3°F12.4°C 97% Calm Calm 1.2 mph1.9 kmh 29.87 in1011.5 mb - 0.00 in0.0 mm 0.00 in0.0 mm
09:00 PM 55.1°F12.8°C 54.3°F12.4°C 97% 1.2 mph ESE1.9 kmh ESE 1.2 mph1.9 kmh 29.88 in1011.9 mb - 0.00 in0.0 mm 0.00 in0.0 mm
08:45 PM 55.1°F12.8°C 54.0°F12.2°C 96% Calm Calm -- 29.88 in1011.9 mb - 0.00 in0.0 mm 0.00 in0.0 mm
08:30 PM 55.2°F12.9°C 54.4°F12.4°C 97% 1.2 mph ESE1.9 kmh ESE 2.3 mph3.7 kmh 29.88 in1011.9 mb - 0.00 in0.0 mm 0.00 in0.0 mm
08:15 PM 55.2°F12.9°C 54.4°F12.4°C 97% Calm Calm -- 29.88 in1011.9 mb - 0.00 in0.0 mm 0.00 in0.0 mm
08:00 PM 55.1°F12.8°C 54.3°F12.4°C 97% Calm Calm -- 29.87 in1011.5 mb - 0.00 in0.0 mm 0.00 in0.0 mm
07:45 PM 55.0°F12.8°C 54.2°F12.3°C 97% Calm Calm -- 29.87 in1011.5 mb - 0.00 in0.0 mm 0.00 in0.0 mm
07:30 PM 55.0°F12.8°C 53.9°F12.2°C 96% Calm Calm -- 29.88 in1011.9 mb - 0.00 in0.0 mm 0.00 in0.0 mm
07:15 PM 55.0°F12.8°C 53.9°F12.2°C 96% Calm Calm 1.2 mph1.9 kmh 29.88 in1011.9 mb - 0.00 in0.0 mm 0.00 in0.0 mm
07:00 PM 55.0°F12.8°C 54.2°F12.3°C 97% Calm Calm -- 29.88 in1011.9 mb - 0.00 in0.0 mm 0.00 in0.0 mm
06:45 PM 55.0°F12.8°C 54.2°F12.3°C 97% 3.5 mph ESE5.6 kmh ESE 3.5 mph5.6 kmh 29.89 in1012.2 mb - 0.00 in0.0 mm 0.00 in0.0 mm
06:30 PM 54.8°F12.7°C 53.7°F12.1°C 96% 1.2 mph ESE1.9 kmh ESE 2.3 mph3.7 kmh 29.89 in1012.2 mb - 0.00 in0.0 mm 0.00 in0.0 mm
06:15 PM 54.9°F12.7°C 53.8°F12.1°C 96% 2.3 mph ESE3.7 kmh ESE 3.5 mph5.6 kmh 29.89 in1012.2 mb - 0.00 in0.0 mm 0.00 in0.0 mm
06:00 PM 54.9°F12.7°C 53.8°F12.1°C 96% 2.3 mph ESE3.7 kmh ESE 3.5 mph5.6 kmh 29.89 in1012.2 mb - 0.00 in0.0 mm 0.00 in0.0 mm
05:45 PM 55.0°F12.8°C 53.9°F12.2°C 96% 2.3 mph ESE3.7 kmh ESE 3.5 mph5.6 kmh 29.89 in1012.2 mb - 0.00 in0.0 mm 0.00 in0.0 mm
05:30 PM 55.1°F12.8°C 54.0°F12.2°C 96% 2.3 mph ESE3.7 kmh ESE 4.6 mph7.4 kmh 29.89 in1012.2 mb - 0.00 in0.0 mm 0.00 in0.0 mm
05:15 PM 55.2°F12.9°C 53.8°F12.1°C 95% 1.2 mph ESE1.9 kmh ESE 3.5 mph5.6 kmh 29.90 in1012.5 mb - 0.00 in0.0 mm 0.00 in0.0 mm
05:00 PM 55.3°F12.9°C 53.8°F12.1°C 95% Calm Calm 3.5 mph5.6 kmh 29.91 in1012.9 mb - 0.00 in0.0 mm 0.00 in0.0 mm
04:45 PM 55.4°F13.0°C 54.0°F12.2°C 95% Calm Calm 2.3 mph3.7 kmh 29.90 in1012.5 mb - 0.00 in0.0 mm 0.00 in0.0 mm
04:30 PM 55.4°F13.0°C 54.0°F12.2°C 95% 1.2 mph ESE1.9 kmh ESE 3.5 mph5.6 kmh 29.91 in1012.9 mb - 0.00 in0.0 mm 0.00 in0.0 mm
04:15 PM 55.3°F12.9°C 53.9°F12.2°C 95% 1.2 mph SE1.9 kmh SE 3.5 mph5.6 kmh 29.90 in1012.5 mb - 0.00 in0.0 mm 0.00 in0.0 mm
04:00 PM 56.0°F13.3°C 54.6°F12.6°C 95% Calm Calm 3.5 mph5.6 kmh 29.91 in1012.9 mb - 0.00 in0.0 mm 0.00 in0.0 mm
03:45 PM 55.6°F13.1°C 54.2°F12.3°C 95% 1.2 mph ESE1.9 kmh ESE 4.6 mph7.4 kmh 29.91 in1012.9 mb - 0.00 in0.0 mm 0.00 in0.0 mm
03:30 PM 55.7°F13.2°C 54.3°F12.4°C 95% 1.2 mph ESE1.9 kmh ESE 4.6 mph7.4 kmh 29.91 in1012.9 mb - 0.00 in0.0 mm 0.00 in0.0 mm
03:15 PM 55.7°F13.2°C 54.0°F12.2°C 94% 2.3 mph ESE3.7 kmh ESE 5.8 mph9.3 kmh 29.92 in1013.2 mb - 0.00 in0.0 mm 0.00 in0.0 mm
03:00 PM 56.2°F13.4°C 54.5°F12.5°C 94% 2.3 mph ESE3.7 kmh ESE 5.8 mph9.3 kmh 29.92 in1013.2 mb - 0.00 in0.0 mm 0.00 in0.0 mm
02:45 PM 56.7°F13.7°C 54.7°F12.6°C 93% 2.3 mph ESE3.7 kmh ESE 3.5 mph5.6 kmh 29.92 in1013.2 mb - 0.00 in0.0 mm 0.00 in0.0 mm
02:30 PM 56.7°F13.7°C 54.7°F12.6°C 93% 2.3 mph E3.7 kmh E 2.3 mph3.7 kmh 29.92 in1013.2 mb - 0.00 in0.0 mm 0.00 in0.0 mm
02:15 PM 57.0°F13.9°C 55.0°F12.8°C 93% 2.3 mph ESE3.7 kmh ESE 2.3 mph3.7 kmh 29.93 in1013.5 mb - 0.00 in0.0 mm 0.00 in0.0 mm
02:00 PM 57.8°F14.3°C 55.5°F13.1°C 92% 3.5 mph ESE5.6 kmh ESE 6.9 mph11.1 kmh 29.92 in1013.2 mb - 0.00 in0.0 mm 0.00 in0.0 mm
01:45 PM 57.6°F14.2°C 55.3°F12.9°C 92% 1.2 mph E1.9 kmh E 1.2 mph1.9 kmh 29.93 in1013.5 mb - 0.00 in0.0 mm 0.00 in0.0 mm
01:30 PM 58.1°F14.5°C 55.8°F13.2°C 92% 2.3 mph ENE3.7 kmh ENE 4.6 mph7.4 kmh 29.93 in1013.5 mb - 0.00 in0.0 mm 0.00 in0.0 mm
01:15 PM 58.4°F14.7°C 56.1°F13.4°C 92% 2.3 mph E3.7 kmh E 5.8 mph9.3 kmh 29.93 in1013.5 mb - 0.00 in0.0 mm 0.00 in0.0 mm
01:00 PM 58.7°F14.8°C 56.1°F13.4°C 91% 2.3 mph ENE3.7 kmh ENE 4.6 mph7.4 kmh 29.94 in1013.9 mb - 0.00 in0.0 mm 0.00 in0.0 mm
12:45 PM 59.1°F15.1°C 56.8°F13.8°C 92% 1.2 mph E1.9 kmh E 3.5 mph5.6 kmh 29.95 in1014.2 mb - 0.00 in0.0 mm 0.00 in0.0 mm
12:30 PM 58.7°F14.8°C 56.1°F13.4°C 91% 1.2 mph E1.9 kmh E 4.6 mph7.4 kmh 29.95 in1014.2 mb - 0.00 in0.0 mm 0.00 in0.0 mm
12:15 PM 58.8°F14.9°C 56.2°F13.4°C 91% 2.3 mph E3.7 kmh E 4.6 mph7.4 kmh 29.95 in1014.2 mb - 0.00 in0.0 mm 0.00 in0.0 mm
12:00 PM 59.3°F15.2°C 57.0°F13.9°C 92% 2.3 mph E3.7 kmh E 4.6 mph7.4 kmh 29.95 in1014.2 mb - 0.00 in0.0 mm 0.00 in0.0 mm
11:45 AM 59.3°F15.2°C 56.4°F13.6°C 90% 2.3 mph E3.7 kmh E 5.8 mph9.3 kmh 29.95 in1014.2 mb - 0.00 in0.0 mm 0.00 in0.0 mm
11:30 AM 60.5°F15.8°C 56.9°F13.8°C 88% 2.3 mph E3.7 kmh E 4.6 mph7.4 kmh 29.95 in1014.2 mb - 0.00 in0.0 mm 0.00 in0.0 mm
11:15 AM 61.4°F16.3°C 58.7°F14.8°C 91% 1.2 mph E1.9 kmh E 5.8 mph9.3 kmh 29.95 in1014.2 mb - 0.00 in0.0 mm 0.00 in0.0 mm
11:00 AM 61.0°F16.1°C 58.7°F14.8°C 92% 2.3 mph E3.7 kmh E 2.3 mph3.7 kmh 29.96 in1014.6 mb - 0.00 in0.0 mm 0.00 in0.0 mm
10:45 AM 59.9°F15.5°C 57.6°F14.2°C 92% 1.2 mph E1.9 kmh E 3.5 mph5.6 kmh 29.96 in1014.6 mb - 0.00 in0.0 mm 0.00 in0.0 mm
10:30 AM 59.5°F15.3°C 57.8°F14.3°C 94% 1.2 mph E1.9 kmh E 3.5 mph5.6 kmh 29.96 in1014.6 mb - 0.00 in0.0 mm 0.00 in0.0 mm
10:15 AM 59.1°F15.1°C 57.7°F14.3°C 95% 1.2 mph E1.9 kmh E 3.5 mph5.6 kmh 29.98 in1015.2 mb - 0.00 in0.0 mm 0.00 in0.0 mm
10:00 AM 59.2°F15.1°C 58.1°F14.5°C 96% 1.2 mph E1.9 kmh E 2.3 mph3.7 kmh 29.97 in1014.9 mb - 0.00 in0.0 mm 0.00 in0.0 mm
09:45 AM 58.7°F14.8°C 57.5°F14.2°C 96% 1.2 mph E1.9 kmh E 5.8 mph9.3 kmh 29.98 in1015.2 mb - 0.00 in0.0 mm 0.00 in0.0 mm
09:30 AM 58.3°F14.6°C 57.4°F14.1°C 97% 2.3 mph E3.7 kmh E 3.5 mph5.6 kmh 29.97 in1014.9 mb - 0.00 in0.0 mm 0.00 in0.0 mm
09:15 AM 57.9°F14.4°C 57.1°F13.9°C 97% 2.3 mph SE3.7 kmh SE 3.5 mph5.6 kmh 29.98 in1015.2 mb - 0.00 in0.0 mm 0.00 in0.0 mm
09:00 AM 57.8°F14.3°C 57.2°F14.0°C 98% 2.3 mph SE3.7 kmh SE 3.5 mph5.6 kmh 29.98 in1015.2 mb - 0.00 in0.0 mm 0.00 in0.0 mm
08:45 AM 56.9°F13.8°C 56.3°F13.5°C 98% Calm Calm 2.3 mph3.7 kmh 29.98 in1015.2 mb - 0.00 in0.0 mm 0.00 in0.0 mm
08:30 AM 56.3°F13.5°C 55.7°F13.2°C 98% 2.3 mph SE3.7 kmh SE 3.5 mph5.6 kmh 29.99 in1015.6 mb - 0.00 in0.0 mm 0.00 in0.0 mm
08:15 AM 55.8°F13.2°C 55.0°F12.8°C 97% 1.2 mph SE1.9 kmh SE 2.3 mph3.7 kmh 29.99 in1015.6 mb - 0.00 in0.0 mm 0.00 in0.0 mm
08:00 AM 56.0°F13.3°C 55.2°F12.9°C 97% 2.3 mph SE3.7 kmh SE 4.6 mph7.4 kmh 29.99 in1015.6 mb - 0.00 in0.0 mm 0.00 in0.0 mm
07:45 AM 56.2°F13.4°C 55.6°F13.1°C 98% 3.5 mph SE5.6 kmh SE 3.5 mph5.6 kmh 29.98 in1015.2 mb - 0.00 in0.0 mm 0.00 in0.0 mm
07:30 AM 55.6°F13.1°C 55.0°F12.8°C 98% 1.2 mph SE1.9 kmh SE 2.3 mph3.7 kmh 29.98 in1015.2 mb - 0.00 in0.0 mm 0.00 in0.0 mm
07:15 AM 55.1°F12.8°C 54.3°F12.4°C 97% Calm Calm 1.2 mph1.9 kmh 29.99 in1015.6 mb - 0.00 in0.0 mm 0.00 in0.0 mm
07:00 AM 55.1°F12.8°C 54.3°F12.4°C 97% 1.2 mph SE1.9 kmh SE 2.3 mph3.7 kmh 29.99 in1015.6 mb - 0.00 in0.0 mm 0.00 in0.0 mm
06:45 AM 54.9°F12.7°C 54.1°F12.3°C 97% 1.2 mph SE1.9 kmh SE 2.3 mph3.7 kmh 29.99 in1015.6 mb - 0.00 in0.0 mm 0.00 in0.0 mm
06:30 AM 55.0°F12.8°C 54.2°F12.3°C 97% 2.3 mph SE3.7 kmh SE 2.3 mph3.7 kmh 29.99 in1015.6 mb - 0.00 in0.0 mm 0.00 in0.0 mm
06:15 AM 54.6°F12.6°C 53.8°F12.1°C 97% 2.3 mph SE3.7 kmh SE 3.5 mph5.6 kmh 29.98 in1015.2 mb - 0.00 in0.0 mm 0.00 in0.0 mm
06:00 AM 54.4°F12.4°C 53.8°F12.1°C 98% 1.2 mph SE1.9 kmh SE 3.5 mph5.6 kmh 29.98 in1015.2 mb - 0.00 in0.0 mm 0.00 in0.0 mm
05:45 AM 53.7°F12.1°C 52.9°F11.6°C 97% 1.2 mph SE1.9 kmh SE 2.3 mph3.7 kmh 29.98 in1015.2 mb - 0.00 in0.0 mm 0.00 in0.0 mm
05:30 AM 53.7°F12.1°C 52.8°F11.6°C 97% 1.2 mph SE1.9 kmh SE 2.3 mph3.7 kmh 29.98 in1015.2 mb - 0.00 in0.0 mm 0.00 in0.0 mm
05:15 AM 53.1°F11.7°C 52.3°F11.3°C 97% Calm Calm 1.2 mph1.9 kmh 29.98 in1015.2 mb - 0.00 in0.0 mm 0.00 in0.0 mm
05:00 AM 52.4°F11.3°C 51.9°F11.1°C 98% Calm Calm -- 29.98 in1015.2 mb - 0.00 in0.0 mm 0.00 in0.0 mm
04:45 AM 51.5°F10.8°C 50.7°F10.4°C 97% Calm Calm -- 29.97 in1014.9 mb - 0.00 in0.0 mm 0.00 in0.0 mm
04:30 AM 50.8°F10.4°C 50.0°F10.0°C 97% Calm Calm 1.2 mph1.9 kmh 29.98 in1015.2 mb - 0.00 in0.0 mm 0.00 in0.0 mm
04:15 AM 49.9°F9.9°C 49.4°F9.7°C 98% 1.2 mph SE1.9 kmh SE 1.2 mph1.9 kmh 29.98 in1015.2 mb - 0.00 in0.0 mm 0.00 in0.0 mm
04:00 AM 48.9°F9.4°C 48.1°F8.9°C 97% 1.2 mph SE1.9 kmh SE 2.3 mph3.7 kmh 29.98 in1015.2 mb - 0.00 in0.0 mm 0.00 in0.0 mm
03:45 AM 48.8°F9.3°C 48.0°F8.9°C 97% Calm Calm -- 29.97 in1014.9 mb - 0.00 in0.0 mm 0.00 in0.0 mm
03:30 AM 48.6°F9.2°C 47.8°F8.8°C 97% 2.3 mph SE3.7 kmh SE 4.6 mph7.4 kmh 29.98 in1015.2 mb - 0.00 in0.0 mm 0.00 in0.0 mm
03:15 AM 48.6°F9.2°C 47.8°F8.8°C 97% Calm Calm 1.2 mph1.9 kmh 29.98 in1015.2 mb - 0.00 in0.0 mm 0.00 in0.0 mm
03:00 AM 48.4°F9.1°C 47.8°F8.8°C 98% 2.3 mph SE3.7 kmh SE 3.5 mph5.6 kmh 29.98 in1015.2 mb - 0.00 in0.0 mm 0.00 in0.0 mm
02:45 AM 48.9°F9.4°C 47.8°F8.8°C 96% 2.3 mph SE3.7 kmh SE 3.5 mph5.6 kmh 29.98 in1015.2 mb - 0.00 in0.0 mm 0.00 in0.0 mm
02:30 AM 49.8°F9.9°C 49.0°F9.4°C 97% 1.2 mph SE1.9 kmh SE 3.5 mph5.6 kmh 29.98 in1015.2 mb - 0.00 in0.0 mm 0.00 in0.0 mm
02:15 AM 50.0°F10.0°C 48.9°F9.4°C 96% Calm Calm -- 29.98 in1015.2 mb - 0.00 in0.0 mm 0.00 in0.0 mm
02:00 AM 50.9°F10.5°C 50.1°F10.1°C 97% 1.2 mph SE1.9 kmh SE 3.5 mph5.6 kmh 29.99 in1015.6 mb - 0.00 in0.0 mm 0.00 in0.0 mm
01:45 AM 51.2°F10.7°C 50.4°F10.2°C 97% 2.3 mph SE3.7 kmh SE 3.5 mph5.6 kmh 29.99 in1015.6 mb - 0.00 in0.0 mm 0.00 in0.0 mm
01:30 AM 51.4°F10.8°C 50.6°F10.3°C 97% Calm Calm 3.5 mph5.6 kmh 29.98 in1015.2 mb - 0.00 in0.0 mm 0.00 in0.0 mm
01:15 AM 51.1°F10.6°C 50.3°F10.2°C 97% 1.2 mph SE1.9 kmh SE 2.3 mph3.7 kmh 29.98 in1015.2 mb - 0.00 in0.0 mm 0.00 in0.0 mm
01:00 AM 51.4°F10.8°C 50.6°F10.3°C 97% Calm Calm -- 29.98 in1015.2 mb - 0.00 in0.0 mm 0.00 in0.0 mm
12:45 AM 51.5°F10.8°C 50.7°F10.4°C 97% 1.2 mph SE1.9 kmh SE 2.3 mph3.7 kmh 29.98 in1015.2 mb - 0.00 in0.0 mm 0.00 in0.0 mm
12:30 AM 51.3°F10.7°C 50.2°F10.1°C 96% 1.2 mph SE1.9 kmh SE 2.3 mph3.7 kmh 29.98 in1015.2 mb - 0.00 in0.0 mm 0.00 in0.0 mm
12:15 AM 52.5°F11.4°C 51.4°F10.8°C 96% Calm Calm 1.2 mph1.9 kmh 29.98 in1015.2 mb - 0.00 in0.0 mm 0.00 in0.0 mm
12:00 AM 52.9°F11.6°C 52.1°F11.2°C 97% Calm Calm 2.3 mph3.7 kmh 29.97 in1014.9 mb - 0.00 in0.0 mm 0.00 in0.0 mm